createdAt,value
2018-10-09T00:02:27.491Z,96.07
2018-10-09T00:04:56.203Z,96.56
2018-10-09T00:07:25.679Z,96.25
2018-10-09T00:09:54.554Z,96.17
2018-10-09T00:12:23.424Z,95.87
2018-10-09T00:14:53.041Z,95.71
2018-10-09T00:17:23.393Z,96.13
2018-10-09T00:19:52.175Z,95.66
2018-10-09T00:22:21.660Z,95.92
2018-10-09T00:24:50.883Z,95.83
2018-10-09T00:27:20.056Z,96.03
2018-10-09T00:29:49.299Z,95.71
2018-10-09T00:32:19.420Z,95.35
2018-10-09T00:34:48.860Z,95.50
2018-10-09T00:37:17.593Z,95.68
2018-10-09T00:39:47.179Z,96.17
2018-10-09T00:42:16.728Z,96.13
2018-10-09T00:44:45.529Z,96.21
2018-10-09T00:47:14.198Z,95.95
2018-10-09T00:49:43.106Z,95.88
2018-10-09T00:52:11.929Z,96.02
2018-10-09T00:54:40.754Z,96.17
2018-10-09T00:57:09.750Z,95.98
2018-10-09T00:59:39.871Z,96.10
2018-10-09T01:02:09.285Z,96.41
2018-10-09T01:04:37.975Z,96.46
2018-10-09T01:07:06.988Z,96.68
2018-10-09T01:09:35.859Z,96.93
2018-10-09T01:12:04.728Z,97.19
2018-10-09T01:14:33.444Z,97.00
2018-10-09T01:17:02.364Z,96.74
2018-10-09T01:19:30.997Z,96.55
2018-10-09T01:21:59.966Z,96.78
2018-10-09T01:24:30.761Z,96.71
2018-10-09T01:27:00.400Z,96.51
2018-10-09T01:29:29.905Z,96.85
2018-10-09T01:31:59.009Z,97.06
2018-10-09T01:34:27.819Z,96.79
2018-10-09T01:36:57.397Z,96.97
2018-10-09T01:39:26.109Z,96.55
2018-10-09T01:41:54.921Z,97.17
2018-10-09T01:44:25.061Z,97.00
2018-10-09T01:46:54.301Z,96.70
2018-10-09T01:49:23.730Z,96.59
2018-10-09T01:51:52.622Z,96.80
2018-10-09T01:54:21.608Z,96.40
2018-10-09T01:56:50.294Z,96.74
2018-10-09T01:59:19.480Z,96.75
2018-10-09T02:01:48.199Z,96.77
2018-10-09T02:04:17.042Z,97.39
2018-10-09T02:06:46.071Z,97.20
2018-10-09T02:09:15.101Z,97.94
2018-10-09T02:11:43.747Z,97.89
2018-10-09T02:14:12.957Z,98.08
2018-10-09T02:16:42.750Z,98.35
2018-10-09T02:19:12.254Z,97.94
2018-10-09T02:21:41.374Z,98.37
2018-10-09T02:24:10.540Z,98.25
2018-10-09T02:26:39.469Z,98.24
2018-10-09T02:29:08.296Z,98.26
2018-10-09T02:31:37.455Z,98.16
2018-10-09T02:34:06.156Z,98.15
2018-10-09T02:36:34.910Z,98.53
2018-10-09T02:39:04.533Z,98.84
2018-10-09T02:41:33.297Z,99.34
2018-10-09T02:44:02.661Z,99.08
2018-10-09T02:46:31.616Z,99.26
2018-10-09T02:49:00.681Z,99.17
2018-10-09T02:51:29.448Z,99.16
2018-10-09T02:53:58.325Z,99.22
2018-10-09T02:56:27.125Z,99.28
2018-10-09T02:58:56.980Z,99.08
2018-10-09T03:01:26.012Z,99.12
2018-10-09T03:03:55.307Z,99.52
2018-10-09T03:06:24.279Z,99.56
2018-10-09T03:08:52.945Z,99.81
2018-10-09T03:11:22.870Z,99.52
2018-10-09T03:13:52.184Z,99.66
2018-10-09T03:16:21.233Z,99.55
2018-10-09T03:18:50.105Z,99.60
2018-10-09T03:21:18.855Z,99.34
2018-10-09T03:23:48.130Z,99.56
2018-10-09T03:26:17.085Z,99.40
2018-10-09T03:28:46.495Z,99.56
2018-10-09T03:31:15.359Z,99.43
2018-10-09T03:33:44.096Z,99.80
2018-10-09T03:36:13.170Z,99.94
2018-10-09T03:38:42.195Z,99.66
2018-10-09T03:41:11.155Z,99.62
2018-10-09T03:43:39.866Z,99.40
2018-10-09T03:46:09.150Z,98.96
2018-10-09T03:48:38.020Z,98.97
2018-10-09T03:51:06.901Z,99.33
2018-10-09T03:53:35.720Z,99.06
2018-10-09T03:56:04.820Z,99.29
2018-10-09T03:58:34.136Z,99.18
2018-10-09T04:01:03.275Z,99.54
2018-10-09T04:03:32.768Z,99.93
2018-10-09T04:06:01.979Z,100.00
2018-10-09T04:08:32.021Z,100.00
2018-10-09T04:11:01.262Z,100.00
2018-10-09T04:13:30.164Z,99.75
2018-10-09T04:15:58.872Z,99.81
2018-10-09T04:18:28.092Z,100.00
2018-10-09T04:20:57.380Z,100.00
2018-10-09T04:23:26.108Z,100.00
2018-10-09T04:25:54.995Z,100.00
2018-10-09T04:28:23.940Z,100.00
2018-10-09T04:30:52.797Z,99.44
2018-10-09T04:33:22.972Z,99.56
2018-10-09T04:35:52.336Z,99.84
2018-10-09T04:38:21.577Z,99.37
2018-10-09T04:40:50.245Z,99.70
2018-10-09T04:43:21.207Z,99.64
2018-10-09T04:45:51.420Z,99.26
2018-10-09T04:48:20.496Z,99.26
2018-10-09T04:50:49.936Z,99.24
2018-10-09T04:53:18.667Z,98.83
2018-10-09T04:55:47.381Z,98.64
2018-10-09T04:58:16.816Z,99.19
2018-10-09T05:00:45.931Z,98.73
2018-10-09T05:03:14.971Z,98.85
2018-10-09T05:05:44.230Z,99.17
2018-10-09T05:08:13.430Z,99.30
2018-10-09T05:10:42.713Z,99.15
2018-10-09T05:13:12.967Z,99.33
2018-10-09T05:15:42.097Z,99.41
2018-10-09T05:18:10.996Z,99.26
2018-10-09T05:20:39.653Z,99.14
2018-10-09T05:23:08.653Z,99.38
2018-10-09T05:25:37.932Z,99.27
2018-10-09T05:28:07.415Z,99.30
2018-10-09T05:30:36.557Z,99.13
2018-10-09T05:33:05.275Z,98.95
2018-10-09T05:35:34.160Z,99.02
2018-10-09T05:38:03.115Z,99.10
2018-10-09T05:40:32.168Z,99.01
2018-10-09T05:43:01.073Z,99.05
2018-10-09T05:45:29.824Z,98.70
2018-10-09T05:47:59.012Z,98.83
2018-10-09T05:50:28.465Z,98.88
2018-10-09T05:52:57.518Z,98.89
2018-10-09T05:55:26.683Z,98.65
2018-10-09T05:57:55.796Z,98.74
2018-10-09T06:00:25.323Z,98.89
2018-10-09T06:02:54.272Z,99.11
2018-10-09T06:05:23.377Z,98.68
2018-10-09T06:07:52.813Z,98.83
2018-10-09T06:10:21.876Z,98.47
2018-10-09T06:12:51.188Z,98.83
2018-10-09T06:15:20.453Z,99.01
2018-10-09T06:17:49.608Z,98.68
2018-10-09T06:20:18.922Z,99.14
2018-10-09T06:22:48.123Z,99.41
2018-10-09T06:25:17.303Z,99.42
2018-10-09T06:27:46.087Z,99.12
2018-10-09T06:30:14.862Z,99.17
2018-10-09T06:32:43.665Z,98.79
2018-10-09T06:35:12.471Z,98.71
2018-10-09T06:37:41.479Z,98.80
2018-10-09T06:40:10.716Z,98.26
2018-10-09T06:42:39.540Z,97.79
2018-10-09T06:45:09.208Z,97.69
2018-10-09T06:47:38.334Z,96.83
2018-10-09T06:50:07.582Z,96.45
2018-10-09T06:52:37.893Z,95.37
2018-10-09T06:55:06.996Z,94.40
2018-10-09T06:57:37.313Z,93.34
2018-10-09T07:00:06.122Z,92.64
2018-10-09T07:02:35.877Z,92.08
2018-10-09T07:05:04.942Z,91.17
2018-10-09T07:07:33.748Z,90.46
2018-10-09T07:10:02.900Z,89.11
2018-10-09T07:12:32.504Z,88.18
2018-10-09T07:15:01.797Z,86.35
2018-10-09T07:17:31.032Z,85.19
2018-10-09T07:20:00.163Z,84.23
2018-10-09T07:22:29.074Z,83.74
2018-10-09T07:24:58.896Z,83.20
2018-10-09T07:27:28.095Z,82.89
2018-10-09T07:29:57.063Z,83.39
2018-10-09T07:32:26.283Z,83.34
2018-10-09T07:34:55.488Z,83.34
2018-10-09T07:37:24.649Z,82.78
2018-10-09T07:39:53.602Z,81.67
2018-10-09T07:42:23.239Z,81.15
2018-10-09T07:44:51.919Z,80.42
2018-10-09T07:47:20.703Z,79.49
2018-10-09T07:49:49.853Z,79.39
2018-10-09T07:52:18.777Z,78.99
2018-10-09T07:54:47.613Z,79.19
2018-10-09T07:57:16.362Z,79.40
2018-10-09T07:59:45.743Z,79.21
2018-10-09T08:02:14.913Z,79.79
2018-10-09T08:04:44.296Z,80.12
2018-10-09T08:07:13.707Z,80.02
2018-10-09T08:09:42.752Z,79.75
2018-10-09T08:12:12.032Z,79.47
2018-10-09T08:14:40.799Z,79.91
2018-10-09T08:17:10.508Z,79.65
2018-10-09T08:19:39.256Z,79.86
2018-10-09T08:22:08.092Z,79.34
2018-10-09T08:24:37.047Z,80.29
2018-10-09T08:27:06.226Z,80.43
2018-10-09T08:29:35.693Z,80.28
2018-10-09T08:32:04.416Z,80.57
2018-10-09T08:34:33.959Z,80.84
2018-10-09T08:37:03.816Z,80.45
2018-10-09T08:39:32.519Z,80.67
2018-10-09T08:42:01.537Z,81.16
2018-10-09T08:44:30.944Z,81.04
2018-10-09T08:47:00.167Z,80.83
2018-10-09T08:49:29.203Z,80.23
2018-10-09T08:51:57.907Z,79.59
2018-10-09T08:54:26.949Z,79.71
2018-10-09T08:56:56.050Z,79.01
2018-10-09T08:59:25.133Z,79.07
2018-10-09T09:01:54.295Z,78.94
2018-10-09T09:04:23.200Z,78.56
2018-10-09T09:06:52.905Z,77.50
2018-10-09T09:09:22.014Z,76.64
2018-10-09T09:11:51.358Z,75.43
2018-10-09T09:14:20.152Z,72.93
2018-10-09T09:16:49.734Z,71.55
2018-10-09T09:19:18.959Z,70.04
2018-10-09T09:21:47.833Z,68.62
2018-10-09T09:24:17.417Z,68.58
2018-10-09T09:26:46.223Z,67.61
2018-10-09T09:29:14.888Z,65.98
2018-10-09T09:31:44.095Z,65.03
2018-10-09T09:34:12.977Z,63.24
2018-10-09T09:36:42.604Z,61.12
2018-10-09T09:39:11.900Z,59.71
2018-10-09T09:41:41.938Z,56.89
2018-10-09T09:44:11.352Z,56.04
2018-10-09T09:46:40.300Z,52.62
2018-10-09T09:49:09.793Z,50.81
2018-10-09T09:51:38.847Z,48.01
2018-10-09T09:54:08.094Z,47.34
2018-10-09T09:56:37.625Z,45.02
2018-10-09T09:59:06.672Z,41.79
2018-10-09T10:01:43.642Z,40.17
2018-10-09T10:04:14.768Z,38.32
2018-10-09T10:06:44.176Z,36.29
2018-10-09T10:09:14.229Z,36.26
2018-10-09T10:11:44.394Z,35.52
2018-10-09T10:14:13.223Z,34.47
2018-10-09T10:16:42.968Z,33.19
2018-10-09T10:19:13.187Z,32.93
2018-10-09T10:21:42.318Z,32.70
2018-10-09T10:24:11.549Z,32.33
2018-10-09T10:26:40.661Z,32.89
2018-10-09T10:29:09.692Z,31.14
2018-10-09T10:31:38.400Z,30.57
2018-10-09T10:34:07.427Z,31.02
2018-10-09T10:36:36.143Z,30.72
2018-10-09T10:39:07.044Z,31.08
2018-10-09T10:41:35.979Z,28.96
2018-10-09T10:44:05.296Z,27.97
2018-10-09T10:46:42.354Z,27.17
2018-10-09T10:49:13.936Z,26.69
2018-10-09T10:51:42.665Z,27.28
2018-10-09T10:54:12.802Z,26.98
2018-10-09T10:56:42.045Z,26.63
2018-10-09T10:59:10.938Z,27.04
2018-10-09T11:01:40.372Z,27.59
2018-10-09T11:04:09.455Z,27.14
2018-10-09T11:06:38.314Z,25.41
2018-10-09T11:09:10.216Z,25.01
2018-10-09T11:11:39.224Z,24.56
2018-10-09T11:14:08.651Z,24.81
2018-10-09T11:16:38.775Z,23.33
2018-10-09T11:19:09.053Z,23.12
2018-10-09T11:21:38.106Z,24.49
2018-10-09T11:24:07.055Z,23.86
2018-10-09T11:26:36.518Z,25.46
2018-10-09T11:29:05.875Z,24.61
2018-10-09T11:31:35.581Z,25.83
2018-10-09T11:34:04.347Z,25.16
2018-10-09T11:36:33.673Z,23.65
2018-10-09T11:39:02.463Z,23.53
2018-10-09T11:41:31.887Z,23.01
2018-10-09T11:44:00.763Z,24.77
2018-10-09T11:46:30.026Z,25.91
2018-10-09T11:48:59.634Z,28.95
2018-10-09T11:51:28.819Z,28.99
2018-10-09T11:53:57.548Z,28.97
2018-10-09T11:56:27.295Z,27.57
2018-10-09T11:58:56.102Z,25.92
2018-10-09T12:01:24.979Z,25.67
2018-10-09T12:03:54.209Z,26.15
2018-10-09T12:06:23.214Z,27.85
2018-10-09T12:08:52.623Z,28.40
2018-10-09T12:11:21.658Z,29.51
2018-10-09T12:13:50.395Z,31.37
2018-10-09T12:16:19.219Z,33.32
2018-10-09T12:18:47.951Z,33.24
2018-10-09T12:21:17.214Z,30.96
2018-10-09T12:23:46.850Z,29.45
2018-10-09T12:26:15.597Z,30.07
2018-10-09T12:28:45.271Z,29.06
2018-10-09T12:31:14.288Z,29.76
2018-10-09T12:33:44.500Z,31.17
2018-10-09T12:36:14.024Z,32.81
2018-10-09T12:38:43.050Z,34.31
2018-10-09T12:41:11.851Z,34.04
2018-10-09T12:43:40.638Z,32.74
2018-10-09T12:46:09.734Z,30.97
2018-10-09T12:48:38.550Z,29.44
2018-10-09T12:51:07.265Z,27.77
2018-10-09T12:53:36.695Z,26.22
2018-10-09T12:56:05.667Z,26.86
2018-10-09T12:58:34.623Z,25.48
2018-10-09T13:01:03.199Z,26.94
2018-10-09T13:03:31.987Z,26.76
2018-10-09T13:06:01.661Z,26.92
2018-10-09T13:08:30.456Z,26.72
2018-10-09T13:11:01.494Z,26.16
2018-10-09T13:13:30.390Z,25.66
2018-10-09T13:15:59.447Z,25.77
2018-10-09T13:18:29.280Z,27.98
2018-10-09T13:20:58.100Z,27.57
2018-10-09T13:23:27.081Z,27.25
2018-10-09T13:25:57.263Z,26.81
2018-10-09T13:28:26.445Z,29.32
2018-10-09T13:30:55.921Z,28.79
2018-10-09T13:33:25.013Z,29.75
2018-10-09T13:35:54.199Z,30.48
2018-10-09T13:38:23.101Z,31.84
2018-10-09T13:40:52.995Z,32.85
2018-10-09T13:43:21.918Z,34.16
2018-10-09T13:45:51.120Z,33.52
2018-10-09T13:48:20.342Z,34.73
2018-10-09T13:50:49.311Z,35.32
2018-10-09T13:53:18.680Z,34.19
2018-10-09T13:55:47.945Z,33.05
2018-10-09T13:58:17.134Z,32.23
2018-10-09T14:00:46.362Z,32.58
2018-10-09T14:03:15.394Z,32.00
2018-10-09T14:05:44.854Z,30.12
2018-10-09T14:08:13.639Z,29.67
2018-10-09T14:10:43.365Z,29.95
2018-10-09T14:13:12.209Z,29.95
2018-10-09T14:15:41.080Z,32.05
2018-10-09T14:18:10.028Z,33.94
2018-10-09T14:20:39.142Z,35.64
2018-10-09T14:23:08.507Z,36.63
2018-10-09T14:25:37.475Z,38.69
2018-10-09T14:28:06.993Z,38.63
2018-10-09T14:30:36.064Z,40.21
2018-10-09T14:33:05.289Z,40.68
2018-10-09T14:35:34.374Z,41.24
2018-10-09T14:38:03.813Z,41.78
2018-10-09T14:40:32.898Z,42.50
2018-10-09T14:43:02.190Z,43.57
2018-10-09T14:45:31.569Z,43.43
2018-10-09T14:48:00.666Z,43.67
2018-10-09T14:50:29.486Z,43.52
2018-10-09T14:52:59.237Z,43.39
2018-10-09T14:55:28.205Z,44.60
2018-10-09T14:57:56.834Z,45.98
2018-10-09T15:00:25.801Z,45.30
2018-10-09T15:02:55.015Z,45.84
2018-10-09T15:05:24.037Z,45.99
2018-10-09T15:07:53.103Z,45.82
2018-10-09T15:10:22.700Z,46.13
2018-10-09T15:12:51.515Z,46.99
2018-10-09T15:15:20.309Z,47.39
2018-10-09T15:17:49.309Z,47.74
2018-10-09T15:20:18.246Z,48.48
2018-10-09T15:22:47.042Z,48.29
2018-10-09T15:25:16.013Z,47.53
2018-10-09T15:27:45.283Z,48.72
2018-10-09T15:30:14.590Z,49.23
2018-10-09T15:32:43.315Z,50.22
2018-10-09T15:35:13.074Z,50.36
2018-10-09T15:37:42.714Z,51.68
2018-10-09T15:40:12.447Z,53.19
2018-10-09T15:42:41.228Z,53.91
2018-10-09T15:45:11.105Z,54.75
2018-10-09T15:47:40.030Z,54.84
2018-10-09T15:50:09.319Z,55.38
2018-10-09T15:52:38.511Z,55.75
2018-10-09T15:55:07.319Z,56.58
2018-10-09T15:57:35.969Z,57.33
2018-10-09T16:00:05.799Z,57.43
2018-10-09T16:02:35.315Z,57.69
2018-10-09T16:05:04.585Z,58.81
2018-10-09T16:07:33.745Z,58.54
2018-10-09T16:10:03.045Z,59.61
2018-10-09T16:12:32.049Z,60.21
2018-10-09T16:15:01.115Z,60.13
2018-10-09T16:17:29.939Z,61.40
2018-10-09T16:19:58.934Z,62.06
2018-10-09T16:22:28.042Z,62.49
2018-10-09T16:24:57.391Z,63.30
2018-10-09T16:27:27.246Z,63.33
2018-10-09T16:29:56.077Z,63.83
2018-10-09T16:32:25.300Z,64.58
2018-10-09T16:34:53.986Z,64.99
2018-10-09T16:37:22.692Z,65.56
2018-10-09T16:39:51.733Z,65.84
2018-10-09T16:42:20.994Z,66.42
2018-10-09T16:44:50.064Z,66.79
2018-10-09T16:47:19.711Z,67.38
2018-10-09T16:49:48.714Z,67.51
2018-10-09T16:52:17.888Z,68.31
2018-10-09T16:54:47.158Z,69.18
2018-10-09T16:57:17.366Z,70.55
2018-10-09T16:59:46.352Z,70.48
2018-10-09T17:02:15.205Z,70.57
2018-10-09T17:04:44.017Z,70.54
2018-10-09T17:07:13.262Z,72.02
2018-10-09T17:09:43.420Z,72.02
2018-10-09T17:12:12.712Z,72.21
2018-10-09T17:14:41.617Z,72.99
2018-10-09T17:17:10.980Z,73.37
2018-10-09T17:19:40.570Z,73.52
2018-10-09T17:22:10.916Z,73.80
2018-10-09T17:24:39.896Z,74.79
2018-10-09T17:27:09.044Z,75.25
2018-10-09T17:29:38.785Z,75.50
2018-10-09T17:32:08.030Z,75.86
2018-10-09T17:34:37.782Z,76.64
2018-10-09T17:37:06.814Z,76.00
2018-10-09T17:39:35.812Z,77.30
2018-10-09T17:42:05.213Z,77.80
2018-10-09T17:44:34.459Z,77.59
2018-10-09T17:47:07.433Z,77.72
2018-10-09T17:49:38.131Z,78.53
2018-10-09T17:52:07.159Z,79.10
2018-10-09T17:54:36.291Z,79.10
2018-10-09T17:57:05.593Z,80.44
2018-10-09T17:59:34.551Z,80.91
2018-10-09T18:02:03.931Z,81.40
2018-10-09T18:04:33.180Z,80.93
2018-10-09T18:07:02.432Z,81.18
2018-10-09T18:09:31.578Z,81.60
2018-10-09T18:12:01.002Z,81.54
2018-10-09T18:14:30.071Z,81.72
2018-10-09T18:16:59.454Z,82.07
2018-10-09T18:19:29.406Z,82.15
2018-10-09T18:21:58.175Z,82.42
2018-10-09T18:24:27.096Z,82.60
2018-10-09T18:26:56.166Z,83.07
2018-10-09T18:29:25.315Z,84.35
2018-10-09T18:31:54.511Z,84.62
2018-10-09T18:34:25.133Z,85.48
2018-10-09T18:36:55.391Z,85.95
2018-10-09T18:39:24.306Z,86.32
2018-10-09T18:41:53.814Z,85.72
2018-10-09T18:44:22.885Z,86.39
2018-10-09T18:46:52.027Z,86.49
2018-10-09T18:49:21.086Z,86.60
2018-10-09T18:51:50.287Z,86.85
2018-10-09T18:54:19.532Z,86.75
2018-10-09T18:56:48.782Z,86.77
2018-10-09T18:59:17.932Z,87.82
2018-10-09T19:01:46.781Z,87.87
2018-10-09T19:04:17.291Z,88.08
2018-10-09T19:06:46.580Z,88.24
2018-10-09T19:09:16.039Z,88.71
2018-10-09T19:11:45.266Z,89.57
2018-10-09T19:14:15.390Z,89.24
2018-10-09T19:16:44.680Z,89.69
2018-10-09T19:19:13.940Z,88.95
2018-10-09T19:21:42.956Z,89.09
2018-10-09T19:24:12.589Z,89.05
2018-10-09T19:26:42.021Z,88.87
2018-10-09T19:29:11.825Z,89.88
2018-10-09T19:31:40.780Z,89.73
2018-10-09T19:34:09.921Z,89.67
2018-10-09T19:36:39.380Z,89.81
2018-10-09T19:39:11.052Z,89.60
2018-10-09T19:41:40.495Z,89.29
2018-10-09T19:44:09.423Z,89.09
2018-10-09T19:46:39.442Z,89.55
2018-10-09T19:49:08.235Z,89.92
2018-10-09T19:51:37.522Z,90.81
2018-10-09T19:54:06.767Z,90.51
2018-10-09T19:56:35.880Z,90.84
2018-10-09T19:59:05.506Z,90.28
2018-10-09T20:01:34.312Z,89.74
2018-10-09T20:04:03.389Z,90.85
2018-10-09T20:06:32.748Z,90.26
2018-10-09T20:09:02.315Z,90.52
2018-10-09T20:11:31.228Z,90.56
2018-10-09T20:14:01.392Z,90.40
2018-10-09T20:16:30.831Z,90.87
2018-10-09T20:18:59.845Z,90.98
2018-10-09T20:21:29.048Z,91.17
2018-10-09T20:23:58.285Z,91.05
2018-10-09T20:26:27.371Z,91.64
2018-10-09T20:28:56.991Z,91.28
2018-10-09T20:31:26.548Z,92.08
2018-10-09T20:33:56.238Z,92.55
2018-10-09T20:36:25.368Z,92.99
2018-10-09T20:38:55.110Z,92.47
2018-10-09T20:41:23.893Z,92.88
2018-10-09T20:43:53.127Z,92.77
2018-10-09T20:46:22.278Z,92.65
2018-10-09T20:48:51.447Z,91.31
2018-10-09T20:51:20.788Z,89.84
2018-10-09T20:53:49.986Z,91.93
2018-10-09T20:56:19.071Z,92.57
2018-10-09T20:58:48.457Z,92.77
2018-10-09T21:01:17.666Z,93.30
2018-10-09T21:03:46.853Z,93.07
2018-10-09T21:06:17.898Z,92.81
2018-10-09T21:08:47.193Z,93.07
2018-10-09T21:11:16.505Z,93.39
2018-10-09T21:13:45.612Z,94.02
2018-10-09T21:16:15.017Z,93.83
2018-10-09T21:18:44.208Z,94.02
2018-10-09T21:21:13.613Z,94.39
2018-10-09T21:23:42.511Z,94.35
2018-10-09T21:26:11.865Z,93.97
2018-10-09T21:28:40.652Z,93.99
2018-10-09T21:31:10.537Z,94.13
2018-10-09T21:33:39.648Z,94.76
2018-10-09T21:36:08.814Z,94.76
2018-10-09T21:38:38.047Z,94.68
2018-10-09T21:41:07.026Z,94.71
2018-10-09T21:43:35.975Z,94.97
2018-10-09T21:46:05.553Z,94.81
2018-10-09T21:48:34.371Z,94.62
2018-10-09T21:51:03.305Z,94.67
2018-10-09T21:53:32.352Z,94.68
2018-10-09T21:56:01.033Z,94.76
2018-10-09T21:58:30.731Z,94.71
2018-10-09T22:01:04.993Z,95.22
2018-10-09T22:03:34.032Z,95.23
2018-10-09T22:06:03.642Z,94.53
2018-10-09T22:08:32.443Z,94.72
2018-10-09T22:11:01.668Z,93.98
2018-10-09T22:13:30.986Z,94.13
2018-10-09T22:16:00.294Z,94.38
2018-10-09T22:21:25.316Z,95.35
2018-10-09T22:23:54.982Z,95.41
2018-10-09T22:26:23.702Z,95.18
2018-10-09T22:28:52.938Z,95.59
2018-10-09T22:31:22.410Z,95.51
2018-10-09T22:33:51.340Z,96.05
2018-10-09T22:36:20.606Z,95.41
2018-10-09T22:38:49.384Z,95.93
2018-10-09T22:41:18.092Z,96.08
2018-10-09T22:43:47.189Z,96.06
2018-10-09T22:46:16.426Z,96.10
2018-10-09T22:48:45.808Z,95.93
2018-10-09T22:51:14.754Z,95.80
2018-10-09T22:53:43.669Z,95.97
2018-10-09T22:56:12.352Z,95.99
2018-10-09T22:58:41.137Z,96.11
2018-10-09T23:01:10.031Z,96.14
2018-10-09T23:03:38.570Z,96.32
2018-10-09T23:06:07.326Z,96.51
2018-10-09T23:08:36.471Z,95.75
2018-10-09T23:11:05.686Z,96.15
2018-10-09T23:13:34.924Z,96.80
2018-10-09T23:16:04.116Z,96.71
2018-10-09T23:18:33.021Z,96.23
2018-10-09T23:21:02.591Z,95.82
2018-10-09T23:23:31.690Z,96.14
2018-10-09T23:26:00.613Z,96.29
2018-10-09T23:28:30.355Z,96.13
2018-10-09T23:30:59.451Z,95.53
2018-10-09T23:33:28.591Z,95.78
2018-10-09T23:35:57.604Z,95.83
2018-10-09T23:38:27.082Z,95.70
2018-10-09T23:40:56.450Z,95.78
2018-10-09T23:43:25.517Z,95.65
2018-10-09T23:45:54.775Z,95.94
2018-10-09T23:48:23.345Z,96.09
2018-10-09T23:50:52.213Z,95.99
2018-10-09T23:53:21.536Z,95.70
2018-10-09T23:55:50.731Z,95.59
2018-10-09T23:58:20.087Z,95.27
